createdAt,value
2023-04-09T00:00:03.518Z,100024.88
2023-04-09T00:02:40.309Z,100027.53
2023-04-09T00:05:08.714Z,100032.56
2023-04-09T00:07:36.750Z,100032.09
2023-04-09T00:10:05.585Z,100029.56
2023-04-09T00:12:33.562Z,100025.94
2023-04-09T00:15:01.565Z,100029.56
2023-04-09T00:17:29.737Z,100025.94
2023-04-09T00:19:57.638Z,100025.22
2023-04-09T00:22:25.535Z,100031.22
2023-04-09T00:24:53.985Z,100024.88
2023-04-09T00:27:23.014Z,100022.78
2023-04-09T00:29:53.392Z,100027.16
2023-04-09T00:32:21.849Z,100027.03
2023-04-09T00:34:50.445Z,100028.81
2023-04-09T00:37:18.369Z,100029.91
2023-04-09T00:39:48.158Z,100027.59
2023-04-09T00:42:16.650Z,100026.84
2023-04-09T00:44:44.483Z,100027.72
2023-04-09T00:47:12.854Z,100027.34
2023-04-09T00:49:40.981Z,100023.34
2023-04-09T00:52:08.929Z,100028.91
2023-04-09T00:54:37.787Z,100025.41
2023-04-09T00:57:06.130Z,100027.72
2023-04-09T00:59:34.125Z,100026.16
2023-04-09T01:02:02.409Z,100027.81
2023-04-09T01:04:31.180Z,100035.66
2023-04-09T01:07:45.745Z,100034.47
2023-04-09T01:10:38.369Z,100032.88
2023-04-09T01:13:16.339Z,100029.66
2023-04-09T01:15:57.614Z,100030.97
2023-04-09T01:18:47.485Z,100032.78
2023-04-09T01:21:29.452Z,100029.41
2023-04-09T01:24:17.300Z,100033.75
2023-04-09T01:26:58.449Z,100030.47
2023-04-09T01:29:49.007Z,100025.91
2023-04-09T01:32:19.671Z,100029.50
2023-04-09T01:34:49.344Z,100034.09
2023-04-09T01:37:18.446Z,100033.25
2023-04-09T01:39:47.741Z,100028.09
2023-04-09T01:42:17.975Z,100032.41
2023-04-09T01:44:47.058Z,100034.91
2023-04-09T01:47:15.837Z,100026.03
2023-04-09T01:49:44.887Z,100032.16
2023-04-09T01:52:13.527Z,100028.81
2023-04-09T01:54:43.339Z,100034.66
2023-04-09T01:57:11.307Z,100027.72
2023-04-09T01:59:39.400Z,100025.91
2023-04-09T02:02:17.842Z,100027.47
2023-04-09T02:04:49.767Z,100029.91
2023-04-09T02:07:27.126Z,100032.28
2023-04-09T02:09:55.777Z,100040.22
2023-04-09T02:12:26.508Z,100041.31
2023-04-09T02:14:56.124Z,100039.09
2023-04-09T02:17:24.230Z,100036.63
2023-04-09T02:19:52.917Z,100039.59
2023-04-09T02:22:20.954Z,100035.41
2023-04-09T02:24:49.416Z,100038.03
2023-04-09T02:27:17.311Z,100040.00
2023-04-09T02:29:45.351Z,100037.13
2023-04-09T02:32:14.270Z,100038.91
2023-04-09T02:34:42.581Z,100031.44
2023-04-09T02:37:10.758Z,100036.94
2023-04-09T02:39:38.917Z,100035.78
2023-04-09T02:42:08.033Z,100034.47
2023-04-09T02:44:36.192Z,100031.22
2023-04-09T02:47:05.449Z,100027.72
2023-04-09T02:49:33.475Z,100022.03
2023-04-09T02:52:05.493Z,100024.31
2023-04-09T02:54:34.606Z,100020.06
2023-04-09T02:57:02.507Z,100015.06
2023-04-09T02:59:33.089Z,100018.03
2023-04-09T03:02:01.975Z,100017.66
2023-04-09T03:04:29.954Z,100008.84
2023-04-09T03:06:58.174Z,100011.75
2023-04-09T03:09:26.651Z,100016.38
2023-04-09T03:11:54.480Z,100013.34
2023-04-09T03:14:23.017Z,100011.81
2023-04-09T03:16:51.031Z,100017.66
2023-04-09T03:19:19.588Z,100018.41
2023-04-09T03:21:49.368Z,100019.34
2023-04-09T03:24:19.319Z,100020.81
2023-04-09T03:26:47.652Z,100014.44
2023-04-09T03:29:16.877Z,100013.84
2023-04-09T03:31:46.141Z,100013.94
2023-04-09T03:34:14.146Z,100018.50
2023-04-09T03:36:42.369Z,100010.56
2023-04-09T03:39:16.369Z,100012.00
2023-04-09T03:41:46.780Z,100017.50
2023-04-09T03:44:19.251Z,100020.25
2023-04-09T03:47:04.642Z,100020.59
2023-04-09T03:49:34.720Z,100027.06
2023-04-09T03:52:10.650Z,100015.44
2023-04-09T03:54:43.686Z,100015.31
2023-04-09T03:57:19.904Z,100017.72
2023-04-09T03:59:50.588Z,100015.53
2023-04-09T04:02:21.890Z,100016.47
2023-04-09T04:04:58.898Z,100017.34
2023-04-09T04:07:32.839Z,100021.88
2023-04-09T04:10:08.419Z,100023.66
2023-04-09T04:12:36.738Z,100030.56
2023-04-09T04:15:10.059Z,100031.75
2023-04-09T04:17:43.794Z,100035.00
2023-04-09T04:20:26.866Z,100029.16
2023-04-09T04:23:08.908Z,100038.34
2023-04-09T04:25:42.678Z,100033.34
2023-04-09T04:28:14.097Z,100038.91
2023-04-09T04:30:43.444Z,100028.09
2023-04-09T04:33:12.216Z,100041.38
2023-04-09T04:35:46.354Z,100035.50
2023-04-09T04:38:30.979Z,100043.34
2023-04-09T04:41:02.328Z,100040.22
2023-04-09T04:43:33.375Z,100035.94
2023-04-09T04:46:02.235Z,100048.09
2023-04-09T04:48:32.689Z,100044.09
2023-04-09T04:51:02.314Z,100049.41
2023-04-09T04:53:41.218Z,100051.22
2023-04-09T04:56:16.320Z,100046.06
2023-04-09T04:59:00.489Z,100048.47
2023-04-09T05:01:32.525Z,100056.22
2023-04-09T05:04:03.307Z,100049.56
2023-04-09T05:06:36.037Z,100053.19
2023-04-09T05:09:08.524Z,100061.16
2023-04-09T05:11:46.968Z,100058.19
2023-04-09T05:14:23.029Z,100058.41
2023-04-09T05:16:51.485Z,100056.47
2023-04-09T05:19:23.288Z,100057.69
2023-04-09T05:21:59.198Z,100061.44
2023-04-09T05:24:27.227Z,100068.09
2023-04-09T05:26:55.949Z,100070.25
2023-04-09T05:29:24.720Z,100072.63
2023-04-09T05:31:52.708Z,100072.75
2023-04-09T05:34:41.310Z,100076.00
2023-04-09T05:37:09.260Z,100074.44
2023-04-09T05:39:37.366Z,100070.38
2023-04-09T05:42:07.057Z,100071.94
2023-04-09T05:44:39.943Z,100073.88
2023-04-09T05:47:18.065Z,100075.72
2023-04-09T05:49:59.584Z,100087.13
2023-04-09T05:52:28.643Z,100080.75
2023-04-09T05:54:57.697Z,100090.28
2023-04-09T05:57:37.799Z,100084.41
2023-04-09T06:00:06.836Z,100084.78
2023-04-09T06:02:45.689Z,100092.88
2023-04-09T06:05:14.070Z,100091.41
2023-04-09T06:07:42.055Z,100087.91
2023-04-09T06:10:10.086Z,100089.91
2023-04-09T06:12:38.034Z,100094.22
2023-04-09T06:15:06.709Z,100090.16
2023-04-09T06:17:34.925Z,100082.44
2023-04-09T06:20:03.772Z,100087.31
2023-04-09T06:22:31.741Z,100090.88
2023-04-09T06:25:00.809Z,100093.53
2023-04-09T06:27:28.750Z,100097.66
2023-04-09T06:29:57.576Z,100101.56
2023-04-09T06:32:25.835Z,100110.22
2023-04-09T06:34:54.549Z,100113.06
2023-04-09T06:37:22.479Z,100111.16
2023-04-09T06:40:00.602Z,100122.03
2023-04-09T06:42:29.565Z,100113.81
2023-04-09T06:45:09.834Z,100109.34
2023-04-09T06:47:37.910Z,100114.75
2023-04-09T06:50:06.973Z,100113.03
2023-04-09T06:52:35.164Z,100114.66
2023-04-09T06:55:03.165Z,100106.47
2023-04-09T06:57:31.300Z,100118.03
2023-04-09T06:59:59.469Z,100109.84
2023-04-09T07:02:28.046Z,100110.41
2023-04-09T07:04:56.228Z,100117.31
2023-04-09T07:07:25.647Z,100111.81
2023-04-09T07:09:55.188Z,100117.75
2023-04-09T07:12:33.731Z,100115.88
2023-04-09T07:15:07.605Z,100116.22
2023-04-09T07:17:36.999Z,100111.34
2023-04-09T07:20:05.909Z,100119.72
2023-04-09T07:22:34.277Z,100117.38
2023-04-09T07:25:02.521Z,100118.31
2023-04-09T07:27:30.485Z,100119.75
2023-04-09T07:29:59.987Z,100110.66
2023-04-09T07:32:28.693Z,100119.66
2023-04-09T07:34:57.709Z,100105.00
2023-04-09T07:37:26.204Z,100113.91
2023-04-09T07:39:54.933Z,100107.25
2023-04-09T07:42:23.803Z,100110.38
2023-04-09T07:44:52.498Z,100108.06
2023-04-09T07:47:21.648Z,100106.34
2023-04-09T07:49:50.505Z,100103.22
2023-04-09T07:52:19.608Z,100099.22
2023-04-09T07:54:48.024Z,100099.53
2023-04-09T07:57:16.657Z,100097.56
2023-04-09T07:59:44.718Z,100097.66
2023-04-09T08:02:15.068Z,100099.47
2023-04-09T08:04:43.638Z,100095.47
2023-04-09T08:07:12.104Z,100089.72
2023-04-09T08:09:41.262Z,100092.06
2023-04-09T08:12:09.515Z,100093.97
2023-04-09T08:14:37.808Z,100084.81
2023-04-09T08:17:06.504Z,100084.88
2023-04-09T08:19:34.435Z,100081.28
2023-04-09T08:22:02.512Z,100077.88
2023-04-09T08:24:31.472Z,100076.47
2023-04-09T08:27:01.908Z,100082.28
2023-04-09T08:29:29.904Z,100065.91
2023-04-09T08:31:58.160Z,100067.75
2023-04-09T08:34:26.237Z,100056.47
2023-04-09T08:36:54.295Z,100056.41
2023-04-09T08:39:22.481Z,100064.34
2023-04-09T08:41:52.264Z,100050.56
2023-04-09T08:44:22.188Z,100041.63
2023-04-09T08:46:51.435Z,100050.91
2023-04-09T08:49:20.133Z,100060.97
2023-04-09T08:51:49.422Z,100050.16
2023-04-09T08:54:22.623Z,100052.41
2023-04-09T08:56:51.349Z,100045.53
2023-04-09T08:59:20.057Z,100065.69
2023-04-09T09:01:54.719Z,100054.41
2023-04-09T09:04:23.609Z,100058.84
2023-04-09T09:06:53.189Z,100056.03
2023-04-09T09:09:23.090Z,100055.44
2023-04-09T09:11:53.761Z,100063.66
2023-04-09T09:14:22.048Z,100062.06
2023-04-09T09:16:56.617Z,100061.03
2023-04-09T09:19:24.691Z,100056.78
2023-04-09T09:22:15.547Z,100064.66
2023-04-09T09:24:52.362Z,100062.03
2023-04-09T09:27:41.353Z,100062.97
2023-04-09T09:30:20.653Z,100065.56
2023-04-09T09:33:05.954Z,100066.00
2023-04-09T09:35:52.642Z,100068.06
2023-04-09T09:38:21.736Z,100066.47
2023-04-09T09:40:52.838Z,100048.13
2023-04-09T09:43:22.359Z,100044.09
2023-04-09T09:45:51.173Z,100046.38
2023-04-09T09:48:21.363Z,100048.00
2023-04-09T09:50:52.156Z,100047.53
2023-04-09T09:53:25.591Z,100047.38
2023-04-09T09:55:57.803Z,100045.84
2023-04-09T09:58:39.028Z,100041.34
2023-04-09T10:01:14.084Z,100027.47
2023-04-09T10:03:44.461Z,100028.84
2023-04-09T10:06:13.643Z,100037.34
2023-04-09T10:08:43.268Z,100040.50
2023-04-09T10:11:12.949Z,100027.88
2023-04-09T10:13:49.611Z,100036.72
2023-04-09T10:16:19.308Z,100034.41
2023-04-09T10:18:47.897Z,100042.47
2023-04-09T10:21:50.691Z,100039.25
2023-04-09T10:24:19.202Z,100022.66
2023-04-09T10:26:47.216Z,100024.25
2023-04-09T10:29:17.255Z,100031.66
2023-04-09T10:31:56.068Z,100023.63
2023-04-09T10:34:28.513Z,100019.56
2023-04-09T10:36:58.552Z,100016.88
2023-04-09T10:39:32.879Z,100025.13
2023-04-09T10:42:09.208Z,100026.16
2023-04-09T10:44:41.931Z,100022.53
2023-04-09T10:47:12.365Z,100021.00
2023-04-09T10:49:42.589Z,100017.84
2023-04-09T10:52:13.980Z,100013.91
2023-04-09T10:54:46.100Z,100020.28
2023-04-09T10:57:18.391Z,100007.09
2023-04-09T10:59:52.395Z,100004.22
2023-04-09T11:02:55.036Z,100004.75
2023-04-09T11:05:34.761Z,100001.03
2023-04-09T11:08:14.375Z,99997.69
2023-04-09T11:10:45.314Z,100001.56
2023-04-09T11:13:17.820Z,99993.53
2023-04-09T11:15:46.751Z,99998.38
2023-04-09T11:18:26.075Z,99986.56
2023-04-09T11:20:59.643Z,99987.31
2023-04-09T11:23:28.747Z,99986.06
2023-04-09T11:25:57.003Z,99985.28
2023-04-09T11:28:26.185Z,99983.97
2023-04-09T11:30:54.903Z,99990.88
2023-04-09T11:33:22.979Z,99992.13
2023-04-09T11:35:51.857Z,99986.84
2023-04-09T11:38:19.982Z,100001.75
2023-04-09T11:40:48.858Z,100003.16
2023-04-09T11:43:18.064Z,99986.59
2023-04-09T11:45:50.150Z,99993.38
2023-04-09T11:48:18.757Z,99987.41
2023-04-09T11:50:48.080Z,99990.41
2023-04-09T11:53:23.887Z,99989.34
2023-04-09T11:55:53.231Z,99995.28
2023-04-09T11:58:26.575Z,99983.59
2023-04-09T12:00:58.230Z,99980.25
2023-04-09T12:03:36.927Z,99974.84
2023-04-09T12:06:07.500Z,99968.59
2023-04-09T12:08:37.492Z,99977.09
2023-04-09T12:11:16.643Z,99968.97
2023-04-09T12:13:46.906Z,99986.78
2023-04-09T12:16:19.792Z,99998.97
2023-04-09T12:18:48.441Z,99996.34
2023-04-09T12:21:19.244Z,99998.03
2023-04-09T12:23:47.633Z,100000.44
2023-04-09T12:26:15.926Z,99993.28
2023-04-09T12:28:43.864Z,99981.94
2023-04-09T12:31:12.206Z,99984.16
2023-04-09T12:33:40.625Z,99997.50
2023-04-09T12:36:08.732Z,99995.28
2023-04-09T12:38:36.902Z,100008.63
2023-04-09T12:41:05.248Z,99996.03
2023-04-09T12:43:33.215Z,99993.72
2023-04-09T12:46:01.396Z,99988.63
2023-04-09T12:48:29.252Z,99990.34
2023-04-09T12:50:57.570Z,99974.28
2023-04-09T12:53:25.742Z,99978.13
2023-04-09T12:55:53.791Z,99978.66
2023-04-09T12:58:21.692Z,99970.53
2023-04-09T13:00:49.961Z,99971.69
2023-04-09T13:03:18.098Z,99973.31
2023-04-09T13:05:46.193Z,99974.53
2023-04-09T13:08:14.309Z,99975.69
2023-04-09T13:10:42.829Z,99971.69
2023-04-09T13:13:13.948Z,99979.41
2023-04-09T13:15:45.678Z,99968.19
2023-04-09T13:18:14.270Z,99957.47
2023-04-09T13:20:42.259Z,99954.63
2023-04-09T13:23:10.928Z,99956.28
2023-04-09T13:25:39.060Z,99953.44
2023-04-09T13:28:08.073Z,99960.28
2023-04-09T13:30:36.313Z,99954.91
2023-04-09T13:33:04.465Z,99956.78
2023-04-09T13:35:32.526Z,99955.06
2023-04-09T13:38:01.060Z,99951.56
2023-04-09T13:40:29.163Z,99955.59
2023-04-09T13:42:57.023Z,99956.50
2023-04-09T13:45:25.375Z,99959.66
2023-04-09T13:47:53.989Z,99957.44
2023-04-09T13:50:22.543Z,99959.78
2023-04-09T13:52:50.719Z,99961.97
2023-04-09T13:55:18.796Z,99948.53
2023-04-09T13:57:46.626Z,99947.22
2023-04-09T14:00:15.118Z,99951.22
2023-04-09T14:02:43.375Z,99941.09
2023-04-09T14:05:11.335Z,99949.72
2023-04-09T14:07:39.518Z,99946.06
2023-04-09T14:10:08.684Z,99941.19
2023-04-09T14:12:36.590Z,99941.53
2023-04-09T14:15:05.555Z,99928.38
2023-04-09T14:17:33.662Z,99923.41
2023-04-09T14:20:03.816Z,99920.47
2023-04-09T14:22:31.879Z,99911.56
2023-04-09T14:25:00.196Z,99906.03
2023-04-09T14:27:28.038Z,99911.16
2023-04-09T14:29:56.209Z,99902.53
2023-04-09T14:32:26.052Z,99897.19
2023-04-09T14:34:54.892Z,99904.56
2023-04-09T14:37:23.266Z,99898.00
2023-04-09T14:39:51.332Z,99898.63
2023-04-09T14:42:19.308Z,99896.75
2023-04-09T14:44:48.656Z,99896.75
2023-04-09T14:47:16.770Z,99899.25
2023-04-09T14:49:45.125Z,99898.59
2023-04-09T14:52:13.256Z,99890.59
2023-04-09T14:54:41.935Z,99885.50
2023-04-09T14:57:09.751Z,99888.91
2023-04-09T14:59:38.264Z,99886.59
2023-04-09T15:02:06.811Z,99895.75
2023-04-09T15:04:35.030Z,99905.09
2023-04-09T15:07:03.053Z,99913.63
2023-04-09T15:09:31.818Z,99921.25
2023-04-09T15:12:00.364Z,99932.84
2023-04-09T15:14:32.208Z,99927.09
2023-04-09T15:17:00.340Z,99928.75
2023-04-09T15:19:28.296Z,99938.19
2023-04-09T15:21:56.875Z,99934.06
2023-04-09T15:24:24.839Z,99936.63
2023-04-09T15:26:53.009Z,99939.53
2023-04-09T15:29:21.054Z,99947.25
2023-04-09T15:31:49.833Z,99943.09
2023-04-09T15:34:18.000Z,99938.94
2023-04-09T15:36:46.468Z,99947.66
2023-04-09T15:39:14.434Z,99942.81
2023-04-09T15:41:42.399Z,99942.84
2023-04-09T15:44:10.783Z,99945.88
2023-04-09T15:46:39.050Z,99946.88
2023-04-09T15:49:07.268Z,99942.03
2023-04-09T15:51:35.427Z,99952.25
2023-04-09T15:54:03.442Z,99945.03
2023-04-09T15:56:31.640Z,99938.50
2023-04-09T15:59:02.306Z,99941.34
2023-04-09T16:01:30.351Z,99940.84
2023-04-09T16:03:58.573Z,99940.34
2023-04-09T16:06:26.697Z,99941.53
2023-04-09T16:08:55.216Z,99951.56
2023-04-09T16:11:23.555Z,99939.81
2023-04-09T16:13:51.615Z,99946.69
2023-04-09T16:16:20.166Z,99946.16
2023-04-09T16:18:48.327Z,99941.41
2023-04-09T16:21:16.757Z,99941.31
2023-04-09T16:23:44.649Z,99943.06
2023-04-09T16:26:12.587Z,99945.47
2023-04-09T16:33:32.215Z,99955.41
2023-04-09T16:36:00.172Z,99963.50
2023-04-09T16:38:29.270Z,99968.06
2023-04-09T16:40:57.539Z,99971.97
2023-04-09T16:43:26.349Z,99967.50
2023-04-09T16:45:55.608Z,99981.28
2023-04-09T16:48:24.803Z,99977.25
2023-04-09T16:50:52.966Z,99982.69
2023-04-09T16:53:20.987Z,99987.97
2023-04-09T16:55:50.729Z,99993.53
2023-04-09T16:58:19.278Z,99994.03
2023-04-09T17:00:48.743Z,100000.22
2023-04-09T17:03:18.114Z,100004.72
2023-04-09T17:05:49.844Z,100003.91
2023-04-09T17:08:18.331Z,100005.59
2023-04-09T17:10:46.569Z,100012.69
2023-04-09T17:13:14.535Z,100014.81
2023-04-09T17:15:42.757Z,100018.34
2023-04-09T17:18:11.194Z,100021.69
2023-04-09T17:20:39.113Z,100022.00
2023-04-09T17:23:07.398Z,100026.25
2023-04-09T17:25:35.943Z,100023.47
2023-04-09T17:28:04.957Z,100034.56
2023-04-09T17:30:33.439Z,100031.03
2023-04-09T17:33:01.954Z,100031.06
2023-04-09T17:35:30.166Z,100038.66
2023-04-09T17:37:58.422Z,100037.56
2023-04-09T17:40:28.436Z,100045.47
2023-04-09T17:42:56.636Z,100038.88
2023-04-09T17:45:24.604Z,100047.84
2023-04-09T17:47:53.121Z,100045.06
2023-04-09T17:50:21.451Z,100049.84
2023-04-09T17:52:49.437Z,100048.88
2023-04-09T17:55:17.921Z,100044.53
2023-04-09T17:57:45.949Z,100050.03
2023-04-09T18:00:14.957Z,100059.25
2023-04-09T18:02:54.191Z,100055.63
2023-04-09T18:05:23.321Z,100061.94
2023-04-09T18:07:53.234Z,100067.16
2023-04-09T18:10:23.713Z,100068.84
2023-04-09T18:12:51.954Z,100073.88
2023-04-09T18:15:21.808Z,100074.31
2023-04-09T18:17:50.260Z,100073.75
2023-04-09T18:20:18.521Z,100073.31
2023-04-09T18:22:47.667Z,100076.41
2023-04-09T18:25:16.067Z,100082.16
2023-04-09T18:27:44.094Z,100082.31
2023-04-09T18:30:13.313Z,100087.19
2023-04-09T18:32:41.762Z,100089.84
2023-04-09T18:35:10.640Z,100089.59
2023-04-09T18:37:39.196Z,100081.31
2023-04-09T18:40:13.000Z,100077.81
2023-04-09T18:42:41.548Z,100084.53
2023-04-09T18:45:10.921Z,100087.22
2023-04-09T18:47:39.218Z,100080.47
2023-04-09T18:50:08.188Z,100084.22
2023-04-09T18:52:38.904Z,100089.13
2023-04-09T18:55:08.715Z,100093.91
2023-04-09T18:57:36.953Z,100088.84
2023-04-09T19:00:06.428Z,100094.59
2023-04-09T19:02:35.052Z,100090.00
2023-04-09T19:05:07.456Z,100090.09
2023-04-09T19:07:36.568Z,100088.84
2023-04-09T19:10:05.078Z,100092.63
2023-04-09T19:12:33.274Z,100098.50
2023-04-09T19:15:02.097Z,100091.03
2023-04-09T19:17:30.349Z,100094.28
2023-04-09T19:19:58.516Z,100091.75
2023-04-09T19:22:28.781Z,100096.44
2023-04-09T19:24:57.699Z,100090.31
2023-04-09T19:27:26.661Z,100091.03
2023-04-09T19:30:10.761Z,100097.94
2023-04-09T19:32:41.928Z,100090.63
2023-04-09T19:35:11.525Z,100094.56
2023-04-09T19:37:39.900Z,100098.34
2023-04-09T19:40:09.282Z,100090.91
2023-04-09T19:42:37.998Z,100091.31
2023-04-09T19:45:07.040Z,100093.63
2023-04-09T19:47:35.527Z,100088.13
2023-04-09T19:50:03.883Z,100089.44
2023-04-09T19:52:32.080Z,100081.22
2023-04-09T19:55:01.956Z,100088.47
2023-04-09T19:57:31.973Z,100085.22
2023-04-09T20:00:00.219Z,100096.03
2023-04-09T20:02:28.465Z,100087.94
2023-04-09T20:04:56.953Z,100082.75
2023-04-09T20:07:25.018Z,100083.69
2023-04-09T20:09:53.203Z,100084.81
2023-04-09T20:12:29.769Z,100091.63
2023-04-09T20:14:58.579Z,100076.56
2023-04-09T20:17:27.761Z,100082.00
2023-04-09T20:19:56.248Z,100077.28
2023-04-09T20:22:24.583Z,100077.13
2023-04-09T20:24:53.975Z,100080.72
2023-04-09T20:27:22.840Z,100087.34
2023-04-09T20:29:50.979Z,100085.91
2023-04-09T20:32:20.154Z,100082.53
2023-04-09T20:34:48.647Z,100084.69
2023-04-09T20:37:16.603Z,100084.38
2023-04-09T20:39:45.297Z,100083.53
2023-04-09T20:42:13.463Z,100087.84
2023-04-09T20:44:41.756Z,100086.72
2023-04-09T20:47:10.070Z,100087.53
2023-04-09T20:49:38.951Z,100085.59
2023-04-09T20:52:09.366Z,100085.78
2023-04-09T20:54:40.099Z,100079.19
2023-04-09T20:57:08.239Z,100081.00
2023-04-09T20:59:37.587Z,100080.00
2023-04-09T21:02:06.120Z,100068.47
2023-04-09T21:04:35.501Z,100076.72
2023-04-09T21:07:03.741Z,100076.13
2023-04-09T21:09:32.355Z,100074.50
2023-04-09T21:12:02.747Z,100074.75
2023-04-09T21:14:31.652Z,100076.47
2023-04-09T21:17:01.205Z,100070.13
2023-04-09T21:19:29.424Z,100066.72
2023-04-09T21:21:57.920Z,100074.50
2023-04-09T21:24:27.287Z,100068.84
2023-04-09T21:26:55.714Z,100064.00
2023-04-09T21:29:23.625Z,100058.22
2023-04-09T21:31:51.791Z,100061.13
2023-04-09T21:34:21.324Z,100062.94
2023-04-09T21:36:49.328Z,100073.56
2023-04-09T21:39:17.607Z,100072.00
2023-04-09T21:41:45.990Z,100060.91
2023-04-09T21:44:14.009Z,100062.63
2023-04-09T21:46:42.327Z,100069.94
2023-04-09T21:49:10.505Z,100063.44
2023-04-09T21:51:39.392Z,100056.56
2023-04-09T21:54:09.983Z,100064.66
2023-04-09T21:56:42.016Z,100063.53
2023-04-09T21:59:10.176Z,100057.75
2023-04-09T22:01:38.441Z,100056.78
2023-04-09T22:04:07.193Z,100057.13
2023-04-09T22:06:35.526Z,100055.59
2023-04-09T22:09:04.234Z,100068.13
2023-04-09T22:11:35.283Z,100058.69
2023-04-09T22:14:03.456Z,100058.09
2023-04-09T22:16:32.833Z,100062.53
2023-04-09T22:19:01.011Z,100058.94
2023-04-09T22:21:29.092Z,100058.31
2023-04-09T22:23:57.397Z,100067.50
2023-04-09T22:26:25.506Z,100069.06
2023-04-09T22:28:54.148Z,100066.69
2023-04-09T22:31:23.059Z,100066.31
2023-04-09T22:33:51.148Z,100070.41
2023-04-09T22:36:19.881Z,100070.03
2023-04-09T22:38:47.905Z,100071.09
2023-04-09T22:41:17.736Z,100074.00
2023-04-09T22:43:47.189Z,100078.84
2023-04-09T22:46:15.921Z,100078.72
2023-04-09T22:48:46.688Z,100074.84
2023-04-09T22:51:15.747Z,100078.34
2023-04-09T22:53:44.679Z,100071.50
2023-04-09T22:56:13.484Z,100077.25
2023-04-09T22:58:42.006Z,100079.44
2023-04-09T23:01:12.006Z,100083.78
2023-04-09T23:03:40.201Z,100079.44
2023-04-09T23:06:08.164Z,100077.75
2023-04-09T23:08:38.782Z,100075.06
2023-04-09T23:11:08.534Z,100076.19
2023-04-09T23:13:38.788Z,100071.72
2023-04-09T23:16:08.492Z,100075.78
2023-04-09T23:18:37.730Z,100070.16
2023-04-09T23:21:10.867Z,100071.47
2023-04-09T23:23:39.444Z,100073.88
2023-04-09T23:26:07.639Z,100076.41
2023-04-09T23:28:35.864Z,100069.44
2023-04-09T23:31:04.240Z,100073.88
2023-04-09T23:33:32.799Z,100060.88
2023-04-09T23:36:00.782Z,100065.44
2023-04-09T23:38:28.887Z,100065.66
2023-04-09T23:40:57.050Z,100065.91
2023-04-09T23:43:25.167Z,100059.16
2023-04-09T23:45:53.248Z,100057.94
2023-04-09T23:48:21.150Z,100054.25
2023-04-09T23:50:49.292Z,100049.94
2023-04-09T23:53:17.673Z,100051.47
2023-04-09T23:55:47.872Z,100048.66
2023-04-09T23:58:16.280Z,100045.25
